Kezdőlap
METAR-TAF:

METAR-TAF

Repülőterek :

Resistencia, Argentína

földrajzi szélesség: 27-27S, földrajzi hosszúság: 059-03W, magasság: 53 m

Jelenlegi meteorológiai megfigyelések

A jelentés 53 perccel ezelõtt készült, 23:00 UTC
Déli szél 3 kt
Hőmérséklet 10°C
Páratartalom 87%
Légköri nyomás 1023 hPa
Látótávolság 10 km, vagy több
felhőtlen 1500 m magasságban, és nincs gomolyfelhõ

METAR: SARE 192300Z 18003KT CAVOK 10/08 Q1023

Idő: 20:53 (23:53 UTC)

Előrejelzés

A jelentés 53 perccel ezelõtt készült, 23:00 UTC
Az előrejelzés 20-én 00 óra UTC és 20-én 24 óra UTC között érvényes
Déli szél 5 kt
Látótávolság 10 km, vagy több
felhőtlen 1500 m magasságban, és nincs gomolyfelhõ
Valószínűség 30%
20-én 03 óra UTC és 20-én 11 óra UTC között
Látótávolság: 3000 m
Párásság,

TAF: SARE 192300Z 2000/2024 18005KT CAVOK TX16/2018Z TN04/2009Z PROB30 2003/2011 3000 BR NSC

Meteorológiai megfigyelések és előrejelzések több, mint 4000 repülőtéren (METAR és TAF jelentéseket).

A térképen piros és sárga pontok jelzik az elérhető meteorológiai állomásokat.

Mozgassa az egeret a pont fölött, hogy megjelenjen az állomás neve.

Azután kattintson az időjárási megfigyelések és előrejelzések megtekintéséhez.

A térkép megváltoztatása: kattintson a fekete keresztel jelölt zöld gombra ráközelítéshez, a vonallal jelölt zöld gombra távolításhoz, vagy a zöld nyilakra a szomszédos térképek eléréséhez.


METAR-TAF: